Time;durP1;ratioP1;P1;durP2;ratioP2;P2;SDS_P1;SDS_P2;PMS_P1;PMS_P2;Temp;Humidity;BMP_temperature;BMP_pressure;BME280_temperature;BME280_humidity;BME280_pressure;Samples;Min_cycle;Max_cycle;Signal;HPM_P1;HPM_P2
2024/03/05 00:02:22;;;;;;;113.05;27.30;;;7.10;99.90;;;;;;12413959;28;20042;-35
2024/03/05 00:08:25;;;;;;;119.95;27.08;;;7.20;99.90;;;;;;12437133;28;20053;-36
2024/03/05 00:14:26;;;;;;;96.32;26.35;;;7.20;99.90;;;;;;12428307;28;20042;-35
2024/03/05 00:20:28;;;;;;;86.22;26.15;;;7.20;99.90;;;;;;12437667;28;20053;-35
2024/03/05 00:26:30;;;;;;;114.53;32.92;;;7.20;99.90;;;;;;12428991;28;20046;-36
2024/03/05 00:32:32;;;;;;;106.82;33.55;;;7.20;99.90;;;;;;12431637;28;20046;-35
2024/03/05 00:38:34;;;;;;;101.00;32.67;;;7.20;99.90;;;;;;12427222;28;20845;-36
2024/03/05 00:44:36;;;;;;;105.95;32.97;;;7.20;99.90;;;;;;12434121;28;20617;-35
2024/03/05 00:50:38;;;;;;;112.55;34.90;;;7.20;99.90;;;;;;12431600;28;20077;-36
2024/03/05 00:56:40;;;;;;;125.78;32.58;;;7.20;99.90;;;;;;12430581;28;20077;-35
2024/03/05 01:02:42;;;;;;;118.25;34.05;;;7.20;99.90;;;;;;12437712;28;20098;-35
2024/03/05 01:08:44;;;;;;;109.97;35.75;;;7.20;99.90;;;;;;12437945;28;20395;-35
2024/03/05 01:14:46;;;;;;;91.80;32.35;;;7.20;99.90;;;;;;12428565;28;20037;-35
2024/03/05 01:20:48;;;;;;;96.70;34.20;;;7.20;99.90;;;;;;12435414;28;20079;-35
2024/03/05 01:26:50;;;;;;;93.28;32.45;;;7.20;99.90;;;;;;12446637;28;20042;-35
2024/03/05 01:32:56;;;;;;;90.38;33.72;;;7.20;99.90;;;;;;12432639;28;20078;-35
2024/03/05 01:38:58;;;;;;;96.10;35.13;;;7.20;99.90;;;;;;12432705;28;20132;-36
2024/03/05 01:45:00;;;;;;;97.28;34.88;;;7.20;99.90;;;;;;12430823;28;20137;-36
2024/03/05 01:51:02;;;;;;;112.45;37.42;;;7.20;99.90;;;;;;12433762;28;20046;-35
2024/03/05 01:57:05;;;;;;;95.20;36.13;;;7.10;99.90;;;;;;12438479;28;20041;-35
2024/03/05 02:03:07;;;;;;;99.18;36.15;;;7.10;99.90;;;;;;12439710;28;20052;-36
2024/03/05 02:09:12;;;;;;;100.90;36.30;;;7.10;99.90;;;;;;12433828;28;20089;-36
2024/03/05 02:15:14;;;;;;;97.75;36.10;;;7.20;99.90;;;;;;12427583;28;20060;-35
2024/03/05 02:21:23;;;;;;;90.05;34.92;;;7.10;99.90;;;;;;12434926;28;20054;-36
2024/03/05 02:27:25;;;;;;;108.70;38.72;;;7.10;99.90;;;;;;12435121;28;20054;-36
2024/03/05 02:33:35;;;;;;;109.43;37.53;;;7.10;99.90;;;;;;12435204;28;20502;-36
2024/03/05 02:39:37;;;;;;;103.40;40.95;;;7.10;99.90;;;;;;12409751;28;20129;-36
2024/03/05 02:45:39;;;;;;;119.65;40.58;;;7.10;99.90;;;;;;12430517;28;20084;-35
2024/03/05 02:51:41;;;;;;;113.95;40.95;;;7.10;99.90;;;;;;12442798;28;20235;-36
2024/03/05 02:57:44;;;;;;;103.18;38.08;;;7.10;99.90;;;;;;12432681;28;20486;-36
2024/03/05 03:03:46;;;;;;;112.93;37.78;;;7.10;99.90;;;;;;12429993;28;20057;-35
2024/03/05 03:09:48;;;;;;;87.75;33.47;;;7.10;99.90;;;;;;12426205;28;20103;-35
2024/03/05 03:15:50;;;;;;;96.47;37.65;;;7.00;99.90;;;;;;12436361;28;20057;-35
2024/03/05 03:21:52;;;;;;;114.68;36.83;;;7.10;99.90;;;;;;12433908;28;20074;-35
2024/03/05 03:27:54;;;;;;;89.20;34.88;;;7.10;99.90;;;;;;12430270;28;20073;-35
2024/03/05 03:33:55;;;;;;;103.70;36.33;;;7.10;99.90;;;;;;12427246;28;20112;-36
2024/03/05 03:39:58;;;;;;;108.95;38.10;;;7.10;99.90;;;;;;12437474;28;20089;-35
2024/03/05 03:46:00;;;;;;;86.68;35.10;;;7.10;99.90;;;;;;12415704;28;20121;-35
2024/03/05 03:52:02;;;;;;;105.65;35.20;;;7.10;99.90;;;;;;12429634;28;20052;-36
2024/03/05 03:58:04;;;;;;;93.80;35.20;;;7.20;99.90;;;;;;12430091;28;20200;-36
2024/03/05 04:04:06;;;;;;;86.53;33.30;;;7.10;99.90;;;;;;12436809;28;20038;-36
2024/03/05 04:10:10;;;;;;;102.82;35.80;;;7.10;99.90;;;;;;12431486;28;20407;-36
2024/03/05 04:16:12;;;;;;;99.28;37.42;;;7.20;99.90;;;;;;12422037;28;20403;-36
2024/03/05 04:22:15;;;;;;;105.13;39.50;;;7.10;99.90;;;;;;12431618;28;20565;-35
2024/03/05 04:28:16;;;;;;;97.28;37.95;;;7.20;99.90;;;;;;12427645;28;20061;-36
2024/03/05 04:34:19;;;;;;;106.95;38.28;;;7.20;99.90;;;;;;12426087;28;20058;-35
2024/03/05 04:40:21;;;;;;;100.03;39.20;;;7.20;99.90;;;;;;12435763;28;20762;-36
2024/03/05 04:46:23;;;;;;;89.40;35.35;;;7.10;99.90;;;;;;12427168;28;20053;-36
2024/03/05 04:52:27;;;;;;;98.97;36.40;;;7.10;99.90;;;;;;12416268;28;20096;-36
2024/03/05 04:58:33;;;;;;;89.28;36.03;;;7.10;99.90;;;;;;12425663;28;20050;-35
2024/03/05 05:04:37;;;;;;;91.20;35.08;;;7.00;99.90;;;;;;12425351;28;20481;-36
2024/03/05 05:10:40;;;;;;;97.03;35.05;;;7.00;99.90;;;;;;12432135;28;20080;-35
2024/03/05 05:16:46;;;;;;;104.65;38.38;;;7.00;99.90;;;;;;12427251;28;20118;-35
2024/03/05 05:22:48;;;;;;;100.50;36.28;;;7.00;99.90;;;;;;12431743;28;20406;-35
2024/03/05 05:28:50;;;;;;;86.55;35.50;;;7.00;99.90;;;;;;12423519;28;20053;-35
2024/03/05 05:34:52;;;;;;;97.95;35.40;;;6.90;99.90;;;;;;12427748;28;20049;-35
2024/03/05 05:40:54;;;;;;;96.07;34.42;;;7.00;99.90;;;;;;12425009;28;20088;-35
2024/03/05 05:46:56;;;;;;;90.15;35.28;;;6.90;99.90;;;;;;12432331;28;20042;-36
2024/03/05 05:52:58;;;;;;;88.75;35.25;;;6.90;99.90;;;;;;12438621;28;20054;-35
2024/03/05 05:59:05;;;;;;;93.88;35.40;;;6.90;99.90;;;;;;12442761;28;20516;-35
2024/03/05 06:05:08;;;;;;;96.75;35.22;;;7.00;99.90;;;;;;12440654;28;20050;-35
2024/03/05 06:11:11;;;;;;;95.30;36.00;;;6.90;99.90;;;;;;12419201;28;20049;-36
2024/03/05 06:17:13;;;;;;;88.47;35.40;;;6.90;99.90;;;;;;12435438;28;20567;-35
2024/03/05 06:23:15;;;;;;;84.38;34.00;;;7.00;99.90;;;;;;12424938;28;20081;-35
2024/03/05 06:29:17;;;;;;;93.45;35.88;;;7.00;99.90;;;;;;12437646;28;20056;-35
2024/03/05 06:35:24;;;;;;;102.03;38.42;;;7.10;99.90;;;;;;12437194;28;20085;-36
2024/03/05 06:41:29;;;;;;;96.70;36.80;;;7.10;99.90;;;;;;12428081;28;20120;-35
2024/03/05 06:47:38;;;;;;;103.20;39.45;;;7.10;99.90;;;;;;12434084;28;20056;-35
2024/03/05 07:00:15;;;;;;;89.85;36.45;;;7.10;99.90;;;;;;12432184;28;20064;-35
2024/03/05 07:06:18;;;;;;;92.57;37.85;;;7.10;99.90;;;;;;12433919;28;20140;-35
2024/03/05 07:12:21;;;;;;;84.30;35.75;;;7.10;99.90;;;;;;12439079;28;20061;-36
2024/03/05 07:18:22;;;;;;;81.55;34.60;;;7.10;99.90;;;;;;12428906;28;20129;-35
2024/03/05 07:24:27;;;;;;;92.75;37.08;;;7.10;99.90;;;;;;12438834;28;20085;-35
2024/03/05 07:30:29;;;;;;;87.53;36.22;;;7.30;99.90;;;;;;12435477;28;20057;-35
2024/03/05 07:36:33;;;;;;;91.43;36.50;;;7.40;99.90;;;;;;12413437;28;20184;-36
2024/03/05 07:42:41;;;;;;;84.60;34.60;;;7.50;99.90;;;;;;12432804;28;20050;-36
2024/03/05 07:48:42;;;;;;;84.30;34.88;;;7.60;99.90;;;;;;12415642;28;20125;-36
2024/03/05 07:54:45;;;;;;;78.93;36.50;;;7.60;99.90;;;;;;12430050;28;20046;-35
2024/03/05 08:00:47;;;;;;;74.80;35.40;;;7.60;99.90;;;;;;12418289;28;20085;-36
2024/03/05 08:06:49;;;;;;;73.72;36.08;;;7.60;99.90;;;;;;12423022;28;20049;-36
2024/03/05 08:12:55;;;;;;;67.00;32.20;;;7.70;99.90;;;;;;12419689;28;20046;-35
2024/03/05 08:18:57;;;;;;;74.20;33.53;;;8.00;99.90;;;;;;12428753;28;20050;-35
2024/03/05 08:25:00;;;;;;;91.40;77.70;;;8.30;99.90;;;;;;12428598;28;20073;-36
2024/03/05 08:31:04;;;;;;;76.68;50.17;;;8.40;99.90;;;;;;12408106;28;20077;-35
2024/03/05 08:37:08;;;;;;;77.85;44.95;;;8.40;99.90;;;;;;12431891;28;20080;-35
2024/03/05 08:43:10;;;;;;;71.17;49.80;;;8.30;99.90;;;;;;12424080;28;20048;-36
2024/03/05 08:49:12;;;;;;;64.90;43.45;;;8.20;99.90;;;;;;12426563;28;20316;-35
2024/03/05 08:55:15;;;;;;;60.15;43.55;;;8.10;99.90;;;;;;12432314;28;20072;-36
2024/03/05 09:01:17;;;;;;;58.70;44.03;;;8.10;99.90;;;;;;12407838;28;20468;-36
2024/03/05 09:07:20;;;;;;;53.88;40.47;;;8.20;99.90;;;;;;12424265;28;20469;-36
2024/03/05 09:13:22;;;;;;;59.50;42.85;;;8.40;99.90;;;;;;12430382;28;20054;-35
2024/03/05 09:19:24;;;;;;;50.08;43.95;;;8.50;99.90;;;;;;12428519;28;20057;-36
2024/03/05 09:25:28;;;;;;;55.28;42.55;;;8.60;99.90;;;;;;12438979;28;20107;-36
2024/03/05 09:31:30;;;;;;;54.63;46.42;;;8.60;99.90;;;;;;12434876;28;20068;-36
2024/03/05 09:37:32;;;;;;;62.28;47.03;;;8.60;99.90;;;;;;12436205;28;20144;-35
2024/03/05 09:43:39;;;;;;;54.30;48.63;;;8.50;99.90;;;;;;12437469;28;20065;-35
2024/03/05 09:49:43;;;;;;;56.10;50.25;;;8.10;99.90;;;;;;12437592;28;20491;-36
2024/03/05 09:55:51;;;;;;;47.65;42.67;;;7.70;99.90;;;;;;12425202;28;20123;-35
2024/03/05 10:01:53;;;;;;;44.88;40.72;;;7.40;99.90;;;;;;12444165;28;20084;-35
2024/03/05 10:07:55;;;;;;;45.17;40.63;;;7.30;99.90;;;;;;12435228;28;20046;-36
2024/03/05 10:14:07;;;;;;;43.50;39.25;;;7.20;99.90;;;;;;12440463;28;20049;-36
2024/03/05 10:20:32;;;;;;;45.00;40.20;;;7.20;99.90;;;;;;12436138;28;20419;-36
2024/03/05 10:26:34;;;;;;;;;;;7.20;99.90;;;;;;12439944;28;20084;-36
2024/03/05 10:32:36;;;;;;;40.75;36.47;;;7.20;99.90;;;;;;12429789;28;20064;-35
2024/03/05 10:38:38;;;;;;;41.97;37.97;;;7.30;99.90;;;;;;12427203;28;20184;-36
2024/03/05 10:44:42;;;;;;;40.78;36.58;;;7.40;99.90;;;;;;12436588;28;20084;-36
2024/03/05 10:50:47;;;;;;;41.73;37.53;;;7.60;99.90;;;;;;12428258;28;20046;-36
2024/03/05 10:56:51;;;;;;;46.40;42.08;;;7.70;99.90;;;;;;12430668;28;20054;-36
2024/03/05 11:02:58;;;;;;;46.78;42.50;;;7.60;99.90;;;;;;12437253;28;20046;-36
2024/03/05 11:09:00;;;;;;;45.72;42.08;;;7.50;99.90;;;;;;12432183;28;20076;-35
2024/03/05 11:15:03;;;;;;;40.55;36.85;;;7.40;99.90;;;;;;12433238;28;20057;-35
2024/03/05 11:21:09;;;;;;;37.35;34.05;;;7.40;99.90;;;;;;12433749;28;20511;-36
2024/03/05 11:27:23;;;;;;;34.45;31.60;;;7.50;99.90;;;;;;12434430;28;20553;-36
2024/03/05 11:33:26;;;;;;;37.10;33.33;;;7.50;99.90;;;;;;12431966;28;20058;-36
2024/03/05 11:39:28;;;;;;;32.07;29.17;;;7.80;99.90;;;;;;12430717;28;20049;-36
2024/03/05 11:45:47;;;;;;;33.33;30.58;;;7.70;99.90;;;;;;12426661;28;20041;-36
2024/03/05 11:51:50;;;;;;;26.13;23.92;;;7.70;99.90;;;;;;12427456;28;20695;-36
2024/03/05 11:57:56;;;;;;;23.90;21.90;;;7.70;99.90;;;;;;12431610;28;20089;-36
2024/03/05 12:04:08;;;;;;;26.23;24.00;;;7.80;99.90;;;;;;12438425;28;20541;-36
2024/03/05 12:10:10;;;;;;;26.55;24.30;;;7.90;99.90;;;;;;12428567;28;20038;-35
2024/03/05 12:16:13;;;;;;;24.98;22.98;;;8.00;99.90;;;;;;12431801;28;20415;-36
2024/03/05 12:22:16;;;;;;;24.53;22.50;;;7.80;99.90;;;;;;12407254;28;20049;-36
2024/03/05 12:28:18;;;;;;;26.52;24.17;;;7.90;99.90;;;;;;12426863;28;20792;-36
2024/03/05 12:34:21;;;;;;;27.17;24.92;;;7.90;99.90;;;;;;12432451;28;20058;-35
2024/03/05 12:40:30;;;;;;;25.75;23.70;;;7.70;99.90;;;;;;12419398;28;20144;-36
2024/03/05 12:46:32;;;;;;;26.35;24.13;;;7.60;99.90;;;;;;12424380;28;20380;-36
2024/03/05 12:52:34;;;;;;;25.88;23.90;;;7.60;99.90;;;;;;12393134;28;20057;-36
2024/03/05 12:58:40;;;;;;;22.83;20.83;;;7.40;99.90;;;;;;12433668;28;20052;-35
2024/03/05 13:04:43;;;;;;;21.33;19.45;;;7.50;99.90;;;;;;12397072;28;20126;-36
2024/03/05 13:10:46;;;;;;;21.83;19.92;;;7.40;99.90;;;;;;12427762;28;20060;-35
2024/03/05 13:16:48;;;;;;;21.70;19.75;;;7.50;99.90;;;;;;12427660;28;20502;-36
2024/03/05 13:22:53;;;;;;;20.85;18.85;;;7.50;99.90;;;;;;12412922;28;20196;-36
2024/03/05 13:28:56;;;;;;;22.13;20.23;;;7.60;99.90;;;;;;12431386;28;20125;-36
2024/03/05 13:34:58;;;;;;;22.48;20.45;;;7.70;99.90;;;;;;12423271;28;20046;-35
2024/03/05 13:41:00;;;;;;;21.88;19.88;;;7.60;99.90;;;;;;12423493;28;20046;-35
2024/03/05 13:47:04;;;;;;;23.77;21.67;;;7.50;99.90;;;;;;12425697;28;21100;-36
2024/03/05 13:53:06;;;;;;;;;;;7.50;99.90;;;;;;12415718;28;20509;-35
2024/03/05 13:59:10;;;;;;;22.45;20.05;;;7.50;99.90;;;;;;12397468;28;19964;-35
2024/03/05 14:05:13;;;;;;;26.60;24.02;;;7.50;99.90;;;;;;12395967;28;20414;-36
2024/03/05 14:11:15;;;;;;;27.42;22.02;;;7.40;99.90;;;;;;12434104;28;20207;-35
2024/03/05 14:17:17;;;;;;;27.23;20.63;;;7.30;99.90;;;;;;12440444;28;20081;-35
2024/03/05 14:23:19;;;;;;;26.73;19.55;;;7.30;99.90;;;;;;12430029;28;20057;-36
2024/03/05 14:29:22;;;;;;;29.95;20.30;;;7.20;99.90;;;;;;12438523;28;20084;-35
2024/03/05 14:35:28;;;;;;;30.52;21.17;;;7.20;99.90;;;;;;12410425;28;20058;-36
2024/03/05 14:41:30;;;;;;;30.75;19.58;;;7.10;99.90;;;;;;12422241;28;20057;-35
2024/03/05 14:47:32;;;;;;;28.88;20.58;;;7.00;99.90;;;;;;12414121;28;20073;-35
2024/03/05 14:53:34;;;;;;;25.70;20.38;;;6.90;99.90;;;;;;12432763;28;20052;-36
2024/03/05 14:59:36;;;;;;;34.72;20.83;;;6.90;99.90;;;;;;12435809;28;20088;-36
2024/03/05 15:05:38;;;;;;;27.73;21.35;;;6.80;99.90;;;;;;12410641;28;20050;-35
2024/03/05 15:11:39;;;;;;;33.65;22.00;;;6.80;99.90;;;;;;12431297;28;20168;-35
2024/03/05 15:17:42;;;;;;;33.30;20.98;;;6.70;99.90;;;;;;12425192;28;20061;-36
2024/03/05 15:23:44;;;;;;;33.63;22.63;;;6.60;99.90;;;;;;12433393;28;20038;-36
2024/03/05 15:29:46;;;;;;;31.33;21.88;;;6.60;99.90;;;;;;12424083;28;20049;-36
2024/03/05 15:35:49;;;;;;;32.07;22.40;;;6.50;99.90;;;;;;12432011;28;20049;-36
2024/03/05 15:41:51;;;;;;;33.25;22.10;;;6.40;99.90;;;;;;12419221;28;20475;-36
2024/03/05 15:47:53;;;;;;;31.30;21.25;;;6.30;99.90;;;;;;12410328;28;20046;-35
2024/03/05 15:53:55;;;;;;;31.13;22.33;;;6.20;99.90;;;;;;12435805;28;20402;-35
2024/03/05 16:00:11;;;;;;;31.88;21.52;;;6.10;99.90;;;;;;12417583;28;20061;-36
2024/03/05 16:06:13;;;;;;;35.28;21.88;;;6.10;99.90;;;;;;12424884;28;20096;-36
2024/03/05 16:12:23;;;;;;;34.75;22.73;;;6.00;99.90;;;;;;12438948;28;20426;-35
2024/03/05 16:18:26;;;;;;;38.67;22.50;;;6.00;99.90;;;;;;12425080;28;20058;-36
2024/03/05 16:24:28;;;;;;;42.33;23.83;;;6.00;99.90;;;;;;12427344;28;20054;-35
2024/03/05 16:30:32;;;;;;;40.38;23.00;;;5.90;99.90;;;;;;12428744;28;20968;-36
2024/03/05 16:36:35;;;;;;;;;;;5.90;99.90;;;;;;12433150;28;20057;-35
2024/03/05 16:42:37;;;;;;;37.53;21.85;;;5.90;99.90;;;;;;12435453;28;19929;-35
2024/03/05 16:48:43;;;;;;;36.78;22.95;;;5.80;99.90;;;;;;12424964;28;20045;-35
2024/03/05 16:54:46;;;;;;;38.53;24.08;;;5.80;99.90;;;;;;12427425;28;20125;-36
2024/03/05 17:00:51;;;;;;;39.50;24.80;;;5.80;99.90;;;;;;12430775;28;20506;-35
2024/03/05 17:06:57;;;;;;;38.95;24.75;;;5.80;99.90;;;;;;12421849;28;20058;-36
2024/03/05 17:13:07;;;;;;;39.85;23.92;;;5.80;99.90;;;;;;12430955;28;20061;-35
2024/03/05 17:19:10;;;;;;;40.30;24.63;;;5.70;99.90;;;;;;12418640;28;20521;-35
2024/03/05 17:25:12;;;;;;;42.67;24.02;;;5.70;99.90;;;;;;12426862;28;20517;-36
2024/03/05 17:31:14;;;;;;;41.00;24.73;;;5.60;99.90;;;;;;12421902;28;20080;-35
2024/03/05 17:37:16;;;;;;;39.40;25.77;;;5.60;99.90;;;;;;12432844;28;20049;-36
2024/03/05 17:43:19;;;;;;;45.97;26.20;;;5.60;99.90;;;;;;12409311;28;20545;-36
2024/03/05 17:49:21;;;;;;;39.33;25.70;;;5.50;99.90;;;;;;12435534;28;20483;-35
2024/03/05 17:55:23;;;;;;;43.42;26.17;;;5.60;99.90;;;;;;12421160;28;20081;-35
2024/03/05 18:01:26;;;;;;;41.28;25.80;;;5.50;99.90;;;;;;12440966;28;20084;-35
2024/03/05 18:07:28;;;;;;;39.55;25.73;;;5.60;99.90;;;;;;12438118;28;20450;-35
2024/03/05 18:13:30;;;;;;;42.47;24.92;;;5.50;99.90;;;;;;12442357;28;20061;-35
2024/03/05 18:19:33;;;;;;;41.50;25.77;;;5.60;99.90;;;;;;12424410;28;20073;-35
2024/03/05 18:25:35;;;;;;;43.15;25.67;;;5.60;99.90;;;;;;12434043;28;20046;-36
2024/03/05 18:31:38;;;;;;;39.85;26.08;;;5.50;99.90;;;;;;12439579;28;20050;-36
2024/03/05 18:37:42;;;;;;;40.15;26.40;;;5.50;99.90;;;;;;12432834;28;20062;-35
2024/03/05 18:43:44;;;;;;;;;;;5.50;99.90;;;;;;12435029;28;20434;-36
2024/03/05 18:49:46;;;;;;;39.20;26.35;;;5.60;99.90;;;;;;12417843;28;20016;-35
2024/03/05 18:55:48;;;;;;;39.10;26.75;;;5.50;99.90;;;;;;12431235;28;20272;-36
2024/03/05 19:01:50;;;;;;;39.13;25.88;;;5.50;99.90;;;;;;12442051;28;20049;-35
2024/03/05 19:07:51;;;;;;;42.85;26.88;;;5.50;99.90;;;;;;12433205;28;20042;-35
2024/03/05 19:13:53;;;;;;;38.17;23.88;;;5.50;99.90;;;;;;12432094;28;20057;-36
2024/03/05 19:19:55;;;;;;;32.08;22.70;;;5.50;99.90;;;;;;12430845;28;20141;-35
2024/03/05 19:25:57;;;;;;;32.78;21.80;;;5.50;99.90;;;;;;12433816;28;20076;-35
2024/03/05 19:31:59;;;;;;;36.50;21.65;;;5.50;99.90;;;;;;12430153;28;20112;-35
2024/03/05 19:38:01;;;;;;;33.47;20.65;;;5.50;99.90;;;;;;12429982;28;20049;-35
2024/03/05 19:44:03;;;;;;;33.67;22.48;;;5.50;99.90;;;;;;12428397;28;20091;-35
2024/03/05 19:50:05;;;;;;;30.38;19.98;;;5.50;99.90;;;;;;12429796;28;20166;-35
2024/03/05 19:56:09;;;;;;;35.60;22.00;;;5.50;99.90;;;;;;12423223;28;20104;-35
2024/03/05 20:02:11;;;;;;;28.63;20.07;;;5.50;99.90;;;;;;12433948;28;20038;-35
2024/03/05 20:08:15;;;;;;;28.58;20.38;;;5.50;99.90;;;;;;12430601;28;20362;-35
2024/03/05 20:14:16;;;;;;;30.70;19.65;;;5.40;99.90;;;;;;12431866;28;20057;-35
2024/03/05 20:20:19;;;;;;;27.77;19.33;;;5.40;99.90;;;;;;12425991;28;20064;-35
2024/03/05 20:26:21;;;;;;;26.38;18.65;;;5.50;99.90;;;;;;12435771;28;20046;-35
2024/03/05 20:32:29;;;;;;;28.35;19.52;;;5.50;99.90;;;;;;12436333;28;20050;-36
2024/03/05 20:38:31;;;;;;;29.88;19.52;;;5.50;99.90;;;;;;12426097;28;20061;-35
2024/03/05 20:44:33;;;;;;;25.63;21.15;;;5.40;99.90;;;;;;12420502;28;20077;-35
2024/03/05 20:50:35;;;;;;;27.00;21.42;;;5.40;99.90;;;;;;12437270;28;20049;-35
2024/03/05 20:56:36;;;;;;;26.17;21.25;;;5.30;99.90;;;;;;12432764;28;20392;-35
2024/03/05 21:02:38;;;;;;;28.67;21.73;;;5.20;99.90;;;;;;12436022;28;20636;-35
2024/03/05 21:08:40;;;;;;;30.63;22.08;;;5.10;99.90;;;;;;12434412;28;20383;-36
2024/03/05 21:14:42;;;;;;;27.80;22.00;;;5.10;99.90;;;;;;12426757;28;20057;-35
2024/03/05 21:20:45;;;;;;;30.58;22.90;;;5.00;99.90;;;;;;12422964;28;20072;-35
2024/03/05 21:26:47;;;;;;;29.67;23.58;;;5.00;99.90;;;;;;12445959;28;20048;-35
2024/03/05 21:33:09;;;;;;;31.75;22.50;;;4.90;99.90;;;;;;12442858;28;20449;-35
2024/03/05 21:39:12;;;;;;;26.33;21.65;;;4.80;99.90;;;;;;12421774;28;20046;-36
2024/03/05 21:45:16;;;;;;;29.98;23.27;;;4.90;99.90;;;;;;12430475;28;20053;-35
2024/03/05 21:51:18;;;;;;;28.50;21.88;;;4.90;99.90;;;;;;12445009;28;20050;-35
2024/03/05 21:57:19;;;;;;;29.70;22.05;;;4.90;99.90;;;;;;12432241;28;20054;-35
2024/03/05 22:03:21;;;;;;;32.15;22.25;;;4.90;99.90;;;;;;12423051;28;20047;-36
2024/03/05 22:09:24;;;;;;;30.02;20.25;;;4.90;99.90;;;;;;12438029;28;20053;-35
2024/03/05 22:15:27;;;;;;;27.77;19.45;;;4.90;99.90;;;;;;12429832;28;20050;-35
2024/03/05 22:21:29;;;;;;;30.92;20.17;;;4.90;99.90;;;;;;12440032;28;20058;-35
2024/03/05 22:27:32;;;;;;;27.50;19.00;;;4.90;99.90;;;;;;12438702;28;20068;-35
2024/03/05 22:33:33;;;;;;;30.73;20.92;;;4.90;99.90;;;;;;12417108;28;20077;-35
2024/03/05 22:39:36;;;;;;;29.73;20.48;;;4.90;99.90;;;;;;12438973;28;20180;-35
2024/03/05 22:45:38;;;;;;;27.63;20.35;;;4.90;99.90;;;;;;12433086;28;20574;-35
2024/03/05 22:51:40;;;;;;;31.13;21.63;;;5.00;99.90;;;;;;12444077;28;20506;-35
2024/03/05 22:57:42;;;;;;;30.17;21.08;;;4.90;99.90;;;;;;12434629;28;20061;-35
2024/03/05 23:03:44;;;;;;;32.13;20.90;;;5.00;99.90;;;;;;12443545;28;20172;-36
2024/03/05 23:09:46;;;;;;;28.55;22.13;;;4.90;99.90;;;;;;12435019;28;20418;-35
2024/03/05 23:15:48;;;;;;;32.72;23.02;;;4.90;99.90;;;;;;12438866;28;20053;-35
2024/03/05 23:21:50;;;;;;;31.65;22.75;;;4.90;99.90;;;;;;12418519;28;20391;-36
2024/03/05 23:27:51;;;;;;;30.33;22.65;;;5.00;99.90;;;;;;12432603;28;20049;-35
2024/03/05 23:33:54;;;;;;;29.75;22.80;;;5.00;99.90;;;;;;12436597;28;20085;-36
2024/03/05 23:39:56;;;;;;;34.20;23.52;;;5.00;99.90;;;;;;12416520;28;20521;-36
2024/03/05 23:45:59;;;;;;;32.08;24.17;;;5.00;99.90;;;;;;12430242;28;20125;-36
2024/03/05 23:52:01;;;;;;;34.95;26.83;;;5.10;99.90;;;;;;12410447;28;20054;-36
2024/03/05 23:58:03;;;;;;;36.60;29.02;;;5.10;99.90;;;;;;12435107;28;20487;-34
